createdAt,value
2023-03-15T00:01:46.894Z,98338.98
2023-03-15T00:06:50.219Z,98349.38
2023-03-15T00:11:56.683Z,98357.23
2023-03-15T00:16:59.948Z,98371.18
2023-03-15T00:22:03.432Z,98380.30
2023-03-15T00:27:06.683Z,98392.58
2023-03-15T00:32:10.272Z,98395.06
2023-03-15T00:37:13.552Z,98398.05
2023-03-15T00:42:16.954Z,98414.52
2023-03-15T00:47:20.228Z,98429.03
2023-03-15T00:52:23.610Z,98436.46
2023-03-15T00:57:26.961Z,98453.19
2023-03-15T01:02:30.331Z,98470.40
2023-03-15T01:07:34.293Z,98464.81
2023-03-15T01:12:37.665Z,98469.11
2023-03-15T01:17:41.928Z,98470.66
2023-03-15T01:22:45.018Z,98489.62
2023-03-15T01:27:48.327Z,98501.44
2023-03-15T01:32:51.664Z,98525.38
2023-03-15T01:37:55.248Z,98532.66
2023-03-15T01:43:04.389Z,98524.94
2023-03-15T01:48:08.138Z,98528.86
2023-03-15T01:53:12.404Z,98534.96
2023-03-15T01:58:16.119Z,98555.38
2023-03-15T02:03:26.125Z,98551.46
2023-03-15T02:08:33.627Z,98556.48
2023-03-15T02:13:37.020Z,98588.08
2023-03-15T02:18:40.571Z,98601.35
2023-03-15T02:23:48.604Z,98593.16
2023-03-15T02:28:54.004Z,98595.00
2023-03-15T02:33:57.290Z,98607.66
2023-03-15T02:39:01.616Z,98605.82
2023-03-15T02:44:07.518Z,98610.86
2023-03-15T02:49:13.717Z,98636.71
2023-03-15T02:54:17.215Z,98647.31
2023-03-15T02:59:20.548Z,98669.64
2023-03-15T03:04:23.813Z,98695.83
2023-03-15T03:09:27.405Z,98707.88
2023-03-15T03:14:31.445Z,98721.01
2023-03-15T03:19:34.700Z,98721.36
2023-03-15T03:24:37.948Z,98721.29
2023-03-15T03:29:42.068Z,98723.94
2023-03-15T03:34:48.614Z,98731.57
2023-03-15T03:39:52.150Z,98741.80
2023-03-15T03:44:55.503Z,98760.70
2023-03-15T03:49:58.775Z,98772.39
2023-03-15T03:55:02.117Z,98791.22
2023-03-15T04:00:06.194Z,98809.16
2023-03-15T04:05:11.444Z,98817.98
2023-03-15T04:10:15.234Z,98827.69
2023-03-15T04:15:18.539Z,98835.42
2023-03-15T04:20:24.302Z,98850.23
2023-03-15T04:25:27.924Z,98855.48
2023-03-15T04:30:31.345Z,98866.66
2023-03-15T04:35:36.489Z,98877.02
2023-03-15T04:40:39.881Z,98880.30
2023-03-15T04:45:43.285Z,98884.59
2023-03-15T04:50:46.681Z,98891.54
2023-03-15T04:55:50.430Z,98898.50
2023-03-15T05:00:54.445Z,98905.80
2023-03-15T05:05:57.854Z,98915.11
2023-03-15T05:11:01.492Z,98934.09
2023-03-15T05:16:05.496Z,98950.45
2023-03-15T05:21:09.303Z,98954.11
2023-03-15T05:26:13.513Z,98965.02
2023-03-15T05:31:18.498Z,98987.05
2023-03-15T05:36:22.453Z,99002.45
2023-03-15T05:41:26.251Z,99002.80
2023-03-15T05:46:30.459Z,99011.69
2023-03-15T05:51:33.948Z,99017.79
2023-03-15T05:56:37.362Z,99023.48
2023-03-15T06:01:40.782Z,99042.61
2023-03-15T06:06:44.792Z,99052.39
2023-03-15T06:11:49.310Z,99059.91
2023-03-15T06:16:56.125Z,99065.94
2023-03-15T06:22:01.398Z,99072.56
2023-03-15T06:27:06.462Z,99080.16
2023-03-15T06:32:12.433Z,99096.09
2023-03-15T06:37:28.831Z,99110.20
2023-03-15T06:42:42.428Z,99124.33
2023-03-15T06:47:48.416Z,99135.20
2023-03-15T06:52:54.411Z,99136.98
2023-03-15T06:58:00.412Z,99138.96
2023-03-15T07:03:06.417Z,99141.59
2023-03-15T07:21:08.439Z,99172.75
2023-03-15T07:26:11.850Z,99180.37
2023-03-15T07:31:15.675Z,99187.43
2023-03-15T07:36:18.987Z,99190.40
2023-03-15T07:41:22.517Z,99196.60
2023-03-15T07:46:26.460Z,99205.56
2023-03-15T07:51:29.947Z,99205.54
2023-03-15T07:56:33.457Z,99217.41
2023-03-15T08:01:36.932Z,99231.51
2023-03-15T08:06:40.484Z,99235.73
2023-03-15T08:11:44.699Z,99248.95
2023-03-15T08:16:50.793Z,99254.81
2023-03-15T08:21:54.201Z,99261.69
2023-03-15T08:26:57.717Z,99265.31
2023-03-15T08:32:01.235Z,99275.30
2023-03-15T08:37:05.162Z,99290.82
2023-03-15T08:42:08.884Z,99301.25
2023-03-15T08:47:12.497Z,99306.95
2023-03-15T08:52:18.027Z,99309.48
2023-03-15T08:57:26.076Z,99319.25
2023-03-15T09:02:29.636Z,99333.35
2023-03-15T09:07:33.829Z,99338.46
2023-03-15T09:12:37.365Z,99347.04
2023-03-15T09:17:41.777Z,99354.08
2023-03-15T09:22:50.107Z,99362.74
2023-03-15T09:27:54.053Z,99371.48
2023-03-15T09:32:57.515Z,99386.15
2023-03-15T09:38:01.200Z,99387.81
2023-03-15T09:43:07.485Z,99400.08
2023-03-15T09:48:29.612Z,99401.25
2023-03-15T09:53:52.271Z,99403.81
2023-03-15T09:58:59.975Z,99403.70
2023-03-15T10:04:14.455Z,99411.67
2023-03-15T10:09:19.717Z,99415.68
2023-03-15T10:14:25.823Z,99418.05
2023-03-15T10:19:47.642Z,99429.13
2023-03-15T10:25:05.385Z,99421.42
2023-03-15T10:30:23.032Z,99429.32
2023-03-15T10:35:26.850Z,99441.36
2023-03-15T10:40:46.766Z,99438.67
2023-03-15T10:46:03.881Z,99440.39
2023-03-15T10:51:21.364Z,99444.86
2023-03-15T10:56:27.544Z,99451.27
2023-03-15T11:01:37.810Z,99440.09
2023-03-15T11:06:59.522Z,99440.58
2023-03-15T11:12:06.747Z,99450.66
2023-03-15T11:17:23.187Z,99460.01
2023-03-15T11:22:26.959Z,99463.47
2023-03-15T11:27:32.029Z,99472.39
2023-03-15T11:32:35.582Z,99476.69
2023-03-15T11:37:51.432Z,99475.67
2023-03-15T11:43:02.423Z,99481.57
2023-03-15T11:48:14.553Z,99484.06
2023-03-15T11:53:18.674Z,99490.23
2023-03-15T11:58:42.775Z,99494.64
2023-03-15T12:03:46.193Z,99491.77
2023-03-15T12:08:52.376Z,99492.73
2023-03-15T12:13:58.644Z,99495.92
2023-03-15T12:19:10.758Z,99494.27
2023-03-15T12:24:23.082Z,99497.18
2023-03-15T12:29:29.449Z,99507.58
2023-03-15T12:34:50.180Z,99513.37
2023-03-15T12:40:19.401Z,99514.27
2023-03-15T12:45:40.188Z,99508.70
2023-03-15T12:50:47.315Z,99512.66
2023-03-15T12:55:59.506Z,99532.10
2023-03-15T13:01:16.427Z,99555.95
2023-03-15T13:06:45.583Z,99572.96
2023-03-15T13:11:51.775Z,99566.66
2023-03-15T13:17:17.605Z,99549.40
2023-03-15T13:22:27.059Z,99551.13
2023-03-15T13:27:34.873Z,99564.08
2023-03-15T13:32:38.527Z,99572.33
2023-03-15T13:37:45.403Z,99577.82
2023-03-15T13:42:49.002Z,99583.16
2023-03-15T13:47:52.324Z,99595.36
2023-03-15T13:52:56.858Z,99605.42
2023-03-15T13:58:01.087Z,99614.23
2023-03-15T14:03:13.545Z,99618.20
2023-03-15T14:08:33.618Z,99619.09
2023-03-15T14:13:52.916Z,99624.20
2023-03-15T14:18:56.213Z,99625.37
2023-03-15T14:24:07.063Z,99629.92
2023-03-15T14:29:21.792Z,99634.53
2023-03-15T14:34:43.831Z,99637.70
2023-03-15T14:39:47.245Z,99644.25
2023-03-15T14:44:50.657Z,99647.66
2023-03-15T14:49:54.272Z,99648.85
2023-03-15T14:54:59.224Z,99649.86
2023-03-15T15:00:02.428Z,99654.16
2023-03-15T15:05:17.216Z,99654.50
2023-03-15T15:10:25.440Z,99665.61
2023-03-15T15:15:28.958Z,99668.80
2023-03-15T15:20:32.772Z,99679.21
2023-03-15T15:25:36.302Z,99682.96
2023-03-15T15:30:39.808Z,99695.72
2023-03-15T15:35:43.267Z,99708.85
2023-03-15T15:40:46.838Z,99719.98
2023-03-15T15:45:50.307Z,99724.89
2023-03-15T15:50:53.606Z,99732.77
2023-03-15T15:55:57.413Z,99737.35
2023-03-15T16:01:00.754Z,99744.28
2023-03-15T16:06:04.477Z,99743.31
2023-03-15T16:11:08.540Z,99747.13
2023-03-15T16:16:16.721Z,99756.00
2023-03-15T16:21:54.650Z,99765.69
2023-03-15T16:27:01.621Z,99770.61
2023-03-15T16:32:17.718Z,99775.94
2023-03-15T16:37:29.194Z,99783.48
2023-03-15T16:42:32.713Z,99783.89
2023-03-15T16:47:36.120Z,99782.87
2023-03-15T16:52:42.300Z,99783.46
2023-03-15T16:57:45.586Z,99786.74
2023-03-15T17:02:52.307Z,99793.09
2023-03-15T17:07:56.441Z,99799.27
2023-03-15T17:13:03.443Z,99808.61
2023-03-15T17:18:18.124Z,99818.10
2023-03-15T17:23:23.888Z,99823.12
2023-03-15T17:28:30.070Z,99819.67
2023-03-15T17:33:33.571Z,99821.07
2023-03-15T17:38:41.181Z,99825.08
2023-03-15T17:43:48.549Z,99826.55
2023-03-15T17:48:56.216Z,99828.21
2023-03-15T17:54:00.363Z,99834.89
2023-03-15T17:59:03.656Z,99843.70
2023-03-15T18:04:12.070Z,99848.05
2023-03-15T18:09:16.323Z,99847.61
2023-03-15T18:14:20.342Z,99847.89
2023-03-15T18:19:24.055Z,99849.80
2023-03-15T18:24:27.570Z,99849.65
2023-03-15T18:29:32.005Z,99854.20
2023-03-15T18:34:35.521Z,99861.00
2023-03-15T18:39:39.137Z,99861.05
2023-03-15T18:44:44.216Z,99862.45
2023-03-15T18:49:51.053Z,99864.81
2023-03-15T18:54:54.704Z,99870.06
2023-03-15T18:59:58.619Z,99878.48
2023-03-15T19:05:02.138Z,99883.31
2023-03-15T19:10:08.323Z,99886.51
2023-03-15T19:15:15.407Z,99895.67
2023-03-15T19:20:23.010Z,99898.96
2023-03-15T19:25:26.365Z,99902.98
2023-03-15T19:30:29.955Z,99905.58
2023-03-15T19:35:33.750Z,99908.21
2023-03-15T19:40:37.811Z,99915.52
2023-03-15T19:45:41.746Z,99917.20
2023-03-15T19:50:45.153Z,99924.66
2023-03-15T19:55:48.676Z,99927.02
2023-03-15T20:00:57.521Z,99933.29
2023-03-15T20:06:08.731Z,99939.13
2023-03-15T20:11:20.212Z,99940.34
2023-03-15T20:16:23.749Z,99945.80
2023-03-15T20:21:27.438Z,99946.33
2023-03-15T20:26:31.575Z,99947.35
2023-03-15T20:31:34.898Z,99955.11
2023-03-15T20:36:38.328Z,99954.89
2023-03-15T20:41:41.923Z,99954.60
2023-03-15T20:46:45.819Z,99958.40
2023-03-15T20:51:49.349Z,99962.86
2023-03-15T20:56:52.966Z,99967.89
2023-03-15T21:01:56.836Z,99970.16
2023-03-15T21:07:04.508Z,99976.09
2023-03-15T21:12:08.529Z,99977.88
2023-03-15T21:17:14.531Z,99978.67
2023-03-15T21:22:18.571Z,99979.55
2023-03-15T21:27:21.851Z,99981.21
2023-03-15T21:32:25.633Z,99985.50
2023-03-15T21:37:29.063Z,99991.73
2023-03-15T21:42:33.808Z,99995.23
2023-03-15T21:47:37.238Z,99991.89
2023-03-15T21:52:40.637Z,99996.66
2023-03-15T21:57:44.870Z,100004.52
2023-03-15T22:02:48.386Z,100007.39
2023-03-15T22:07:51.798Z,100007.87
2023-03-15T22:12:55.718Z,100015.23
2023-03-15T22:17:59.033Z,100018.48
2023-03-15T22:23:04.701Z,100022.14
2023-03-15T22:28:08.419Z,100032.38
2023-03-15T22:33:12.252Z,100031.83
2023-03-15T22:38:16.066Z,100032.53
2023-03-15T22:43:20.200Z,100033.32
2023-03-15T22:48:23.613Z,100030.71
2023-03-15T22:53:28.561Z,100040.23
2023-03-15T22:58:32.491Z,100037.88
2023-03-15T23:03:36.208Z,100046.08
2023-03-15T23:08:39.521Z,100044.64
2023-03-15T23:13:43.036Z,100049.01
2023-03-15T23:18:46.452Z,100051.20
2023-03-15T23:23:49.968Z,100053.25
2023-03-15T23:28:54.950Z,100058.69
2023-03-15T23:33:58.329Z,100063.02
2023-03-15T23:39:01.854Z,100066.91
2023-03-15T23:44:05.364Z,100070.55
2023-03-15T23:49:09.082Z,100075.89
2023-03-15T23:54:12.497Z,100077.61
2023-03-15T23:59:16.009Z,100085.52
